createdAt,value
2017-10-09T00:00:33.926Z,12.02
2017-10-09T00:03:03.494Z,12.01
2017-10-09T00:05:29.255Z,11.95
2017-10-09T00:07:54.987Z,11.97
2017-10-09T00:10:20.776Z,12.01
2017-10-09T00:12:46.551Z,11.98
2017-10-09T00:15:12.294Z,12.01
2017-10-09T00:17:38.076Z,12.03
2017-10-09T00:20:03.855Z,12.07
2017-10-09T00:22:29.587Z,12.11
2017-10-09T00:24:55.386Z,12.08
2017-10-09T00:27:21.174Z,12.12
2017-10-09T00:29:46.939Z,12.09
2017-10-09T00:32:12.725Z,12.05
2017-10-09T00:34:38.491Z,12.02
2017-10-09T00:37:04.254Z,12.00
2017-10-09T00:39:29.995Z,11.99
2017-10-09T00:41:55.782Z,12.09
2017-10-09T00:44:21.531Z,12.07
2017-10-09T00:46:47.284Z,12.01
2017-10-09T00:49:13.066Z,12.03
2017-10-09T00:51:38.816Z,12.09
2017-10-09T00:54:04.603Z,12.15
2017-10-09T00:56:30.407Z,12.20
2017-10-09T00:58:56.958Z,12.17
2017-10-09T01:01:22.756Z,12.13
2017-10-09T01:03:48.498Z,12.11
2017-10-09T01:06:14.279Z,12.11
2017-10-09T01:08:40.035Z,12.14
2017-10-09T01:11:05.843Z,12.09
2017-10-09T01:13:31.639Z,12.04
2017-10-09T01:15:57.389Z,12.02
2017-10-09T01:18:23.143Z,11.99
2017-10-09T01:20:48.938Z,11.94
2017-10-09T01:23:14.687Z,11.88
2017-10-09T01:25:40.431Z,11.93
2017-10-09T01:28:06.236Z,11.97
2017-10-09T01:30:31.966Z,11.95
2017-10-09T01:32:57.706Z,11.92
2017-10-09T01:35:23.503Z,11.95
2017-10-09T01:37:50.025Z,11.91
2017-10-09T01:40:15.775Z,11.90
2017-10-09T01:42:41.545Z,11.81
2017-10-09T01:45:07.283Z,11.87
2017-10-09T01:47:33.036Z,11.88
2017-10-09T01:49:58.795Z,11.93
2017-10-09T01:52:24.534Z,11.99
2017-10-09T01:54:50.304Z,12.05
2017-10-09T01:57:16.066Z,12.06
2017-10-09T01:59:41.806Z,12.07
2017-10-09T02:02:07.580Z,12.07
2017-10-09T02:04:33.310Z,12.08
2017-10-09T02:06:59.054Z,12.08
2017-10-09T02:09:24.838Z,12.01
2017-10-09T02:11:50.572Z,12.04
2017-10-09T02:14:16.310Z,12.05
2017-10-09T02:16:42.108Z,12.05
2017-10-09T02:19:07.883Z,12.06
2017-10-09T02:21:33.676Z,12.05
2017-10-09T02:23:59.426Z,11.95
2017-10-09T02:26:25.204Z,11.93
2017-10-09T02:28:50.963Z,11.81
2017-10-09T02:31:16.754Z,11.92
2017-10-09T02:33:42.501Z,11.99
2017-10-09T02:36:08.255Z,11.95
2017-10-09T02:38:34.019Z,11.92
2017-10-09T02:40:59.757Z,11.95
2017-10-09T02:43:25.543Z,11.85
2017-10-09T02:45:51.303Z,11.81
2017-10-09T02:48:17.041Z,11.76
2017-10-09T02:50:42.814Z,11.63
2017-10-09T02:53:08.577Z,11.70
2017-10-09T02:55:34.339Z,11.82
2017-10-09T02:58:00.075Z,11.83
2017-10-09T03:00:25.871Z,11.83
2017-10-09T03:02:51.598Z,11.78
2017-10-09T03:05:17.330Z,11.87
2017-10-09T03:07:43.115Z,11.82
2017-10-09T03:10:08.861Z,11.80
2017-10-09T03:12:34.645Z,11.79
2017-10-09T03:15:00.411Z,11.79
2017-10-09T03:17:26.212Z,11.79
2017-10-09T03:19:51.990Z,11.82
2017-10-09T03:22:18.617Z,11.72
2017-10-09T03:24:45.456Z,11.70
2017-10-09T03:27:19.123Z,11.71
2017-10-09T03:29:45.702Z,11.72
2017-10-09T03:32:11.514Z,11.71
2017-10-09T03:34:37.296Z,11.71
2017-10-09T03:37:03.103Z,11.64
2017-10-09T03:39:28.883Z,11.58
2017-10-09T03:41:54.626Z,11.64
2017-10-09T03:44:20.378Z,11.56
2017-10-09T03:46:46.159Z,11.58
2017-10-09T03:49:11.946Z,11.61
2017-10-09T03:51:37.687Z,11.64
2017-10-09T03:54:03.432Z,11.49
2017-10-09T03:56:29.235Z,11.51
2017-10-09T03:58:54.973Z,11.48
2017-10-09T04:01:20.747Z,11.46
2017-10-09T04:03:46.491Z,11.46
2017-10-09T04:06:12.252Z,11.54
2017-10-09T04:08:37.987Z,11.53
2017-10-09T04:11:03.855Z,11.54
2017-10-09T04:13:29.625Z,11.56
2017-10-09T04:15:55.354Z,11.54
2017-10-09T04:18:21.096Z,11.44
2017-10-09T04:20:46.893Z,11.46
2017-10-09T04:23:12.649Z,11.50
2017-10-09T04:25:38.391Z,11.50
2017-10-09T04:28:04.246Z,11.59
2017-10-09T04:30:29.994Z,11.59
2017-10-09T04:32:55.778Z,11.59
2017-10-09T04:35:21.619Z,11.63
2017-10-09T04:37:47.364Z,11.58
2017-10-09T04:40:13.131Z,11.48
2017-10-09T04:42:38.898Z,11.53
2017-10-09T04:45:04.658Z,11.48
2017-10-09T04:47:30.403Z,11.46
2017-10-09T04:49:56.262Z,11.53
2017-10-09T04:52:22.008Z,11.47
2017-10-09T04:54:47.787Z,11.51
2017-10-09T04:57:13.535Z,11.54
2017-10-09T04:59:39.271Z,11.63
2017-10-09T05:02:05.055Z,11.62
2017-10-09T05:04:30.819Z,11.38
2017-10-09T05:06:56.563Z,11.26
2017-10-09T05:09:22.330Z,11.34
2017-10-09T05:11:48.083Z,11.46
2017-10-09T05:14:13.874Z,11.57
2017-10-09T05:16:39.643Z,11.47
2017-10-09T05:19:05.420Z,11.45
2017-10-09T05:21:31.205Z,11.54
2017-10-09T05:23:57.809Z,11.55
2017-10-09T05:26:23.582Z,11.46
2017-10-09T05:28:49.361Z,11.47
2017-10-09T05:31:15.112Z,11.46
2017-10-09T05:33:40.851Z,11.45
2017-10-09T05:36:06.630Z,11.49
2017-10-09T05:38:32.371Z,11.46
2017-10-09T05:40:58.115Z,11.50
2017-10-09T05:43:23.874Z,11.57
2017-10-09T05:45:49.646Z,11.57
2017-10-09T05:48:15.395Z,11.58
2017-10-09T05:50:41.142Z,11.58
2017-10-09T05:53:06.923Z,11.56
2017-10-09T05:55:32.669Z,11.53
2017-10-09T05:57:58.439Z,11.57
2017-10-09T06:00:24.189Z,11.61
2017-10-09T06:02:49.939Z,11.58
2017-10-09T06:05:15.704Z,11.42
2017-10-09T06:07:41.471Z,11.48
2017-10-09T06:10:07.264Z,11.56
2017-10-09T06:12:32.997Z,11.62
2017-10-09T06:14:58.749Z,11.73
2017-10-09T06:17:24.519Z,11.71
2017-10-09T06:19:50.292Z,11.68
2017-10-09T06:22:16.059Z,11.72
2017-10-09T06:24:41.810Z,11.79
2017-10-09T06:27:07.594Z,11.70
2017-10-09T06:29:33.342Z,11.72
2017-10-09T06:31:59.110Z,11.72
2017-10-09T06:34:24.878Z,11.76
2017-10-09T06:36:50.635Z,11.83
2017-10-09T06:39:16.420Z,11.88
2017-10-09T06:41:42.167Z,11.89
2017-10-09T06:44:07.920Z,11.88
2017-10-09T06:46:33.706Z,11.85
2017-10-09T06:48:59.482Z,11.86
2017-10-09T06:51:25.274Z,11.88
2017-10-09T06:53:51.030Z,11.76
2017-10-09T06:56:16.795Z,11.85
2017-10-09T06:58:42.605Z,11.87
2017-10-09T07:01:08.355Z,11.85
2017-10-09T07:03:34.114Z,11.83
2017-10-09T07:05:59.915Z,11.92
2017-10-09T07:08:25.670Z,11.95
2017-10-09T07:10:51.439Z,12.01
2017-10-09T07:13:17.226Z,11.98
2017-10-09T07:15:42.972Z,11.93
2017-10-09T07:18:08.760Z,12.02
2017-10-09T07:20:34.543Z,12.05
2017-10-09T07:23:00.312Z,12.08
2017-10-09T07:25:26.091Z,12.15
2017-10-09T07:27:51.862Z,12.08
2017-10-09T07:30:17.607Z,12.02
2017-10-09T07:32:43.378Z,11.96
2017-10-09T07:35:09.127Z,11.89
2017-10-09T07:37:34.899Z,11.86
2017-10-09T07:40:00.642Z,11.91
2017-10-09T07:42:26.387Z,11.98
2017-10-09T07:44:52.178Z,11.94
2017-10-09T07:47:17.975Z,12.04
2017-10-09T07:49:43.708Z,11.99
2017-10-09T07:52:09.459Z,11.98
2017-10-09T07:54:35.253Z,11.85
2017-10-09T07:57:01.075Z,11.74
2017-10-09T07:59:27.502Z,11.69
2017-10-09T08:01:53.239Z,11.61
2017-10-09T08:04:19.042Z,11.62
2017-10-09T08:06:44.919Z,11.67
2017-10-09T08:09:10.671Z,11.70
2017-10-09T08:11:36.423Z,11.74
2017-10-09T08:14:02.200Z,11.74
2017-10-09T08:16:27.977Z,11.72
2017-10-09T08:18:53.736Z,11.66
2017-10-09T08:21:19.486Z,11.65
2017-10-09T08:23:45.322Z,11.67
2017-10-09T08:26:11.103Z,11.76
2017-10-09T08:28:36.847Z,11.77
2017-10-09T08:31:02.586Z,11.85
2017-10-09T08:33:28.367Z,11.89
2017-10-09T08:35:54.103Z,11.92
2017-10-09T08:38:19.900Z,11.91
2017-10-09T08:40:45.640Z,11.88
2017-10-09T08:43:11.386Z,11.90
2017-10-09T08:45:37.154Z,12.03
2017-10-09T08:48:02.908Z,12.24
2017-10-09T08:50:32.206Z,12.19
2017-10-09T08:52:58.017Z,12.09
2017-10-09T08:55:23.823Z,12.12
2017-10-09T08:57:49.610Z,12.20
2017-10-09T09:00:15.382Z,12.32
2017-10-09T09:02:41.132Z,12.40
2017-10-09T09:05:06.952Z,12.42
2017-10-09T09:07:32.700Z,12.46
2017-10-09T09:09:58.443Z,12.43
2017-10-09T09:12:24.243Z,12.41
2017-10-09T09:14:49.970Z,12.38
2017-10-09T09:17:15.751Z,12.39
2017-10-09T09:19:41.495Z,12.48
2017-10-09T09:22:07.236Z,12.55
2017-10-09T09:24:33.011Z,12.57
2017-10-09T09:26:58.768Z,12.62
2017-10-09T09:29:24.538Z,12.77
2017-10-09T09:31:50.291Z,12.94
2017-10-09T09:34:16.045Z,13.10
2017-10-09T09:36:41.823Z,13.31
2017-10-09T09:39:07.583Z,13.57
2017-10-09T09:41:33.360Z,13.68
2017-10-09T09:43:59.102Z,13.70
2017-10-09T09:46:24.884Z,13.69
2017-10-09T09:48:50.662Z,13.66
2017-10-09T09:51:16.407Z,13.70
2017-10-09T09:53:42.153Z,13.80
2017-10-09T09:56:07.923Z,13.75
2017-10-09T09:58:33.698Z,13.76
2017-10-09T10:00:59.459Z,14.14
2017-10-09T10:03:25.194Z,15.73
2017-10-09T10:05:50.981Z,16.66
2017-10-09T10:08:16.726Z,16.82
2017-10-09T10:10:42.480Z,16.85
2017-10-09T10:13:08.277Z,16.51
2017-10-09T10:15:34.015Z,15.90
2017-10-09T10:18:00.020Z,15.50
2017-10-09T10:20:25.802Z,15.19
2017-10-09T10:22:51.567Z,15.19
2017-10-09T10:25:17.380Z,15.28
2017-10-09T10:27:43.112Z,14.97
2017-10-09T10:30:08.900Z,14.89
2017-10-09T10:32:34.663Z,14.82
2017-10-09T10:35:00.415Z,14.69
2017-10-09T10:37:26.183Z,14.56
2017-10-09T10:39:51.931Z,14.59
2017-10-09T10:42:17.726Z,14.78
2017-10-09T10:44:43.487Z,14.93
2017-10-09T10:47:09.294Z,15.07
2017-10-09T10:49:35.036Z,15.63
2017-10-09T10:52:00.819Z,16.29
2017-10-09T10:54:26.584Z,17.31
2017-10-09T10:56:52.355Z,18.06
2017-10-09T10:59:18.111Z,18.44
2017-10-09T11:01:43.903Z,19.40
2017-10-09T11:04:09.649Z,19.39
2017-10-09T11:06:35.410Z,18.92
2017-10-09T11:09:01.204Z,18.39
2017-10-09T11:11:26.942Z,18.25
2017-10-09T11:13:52.673Z,17.69
2017-10-09T11:16:18.449Z,17.71
2017-10-09T11:18:44.318Z,17.74
2017-10-09T11:21:10.054Z,17.55
2017-10-09T11:23:35.843Z,17.36
2017-10-09T11:26:01.574Z,16.86
2017-10-09T11:28:27.323Z,16.78
2017-10-09T11:30:53.095Z,16.76
2017-10-09T11:33:18.912Z,17.18
2017-10-09T11:35:44.647Z,17.72
2017-10-09T11:38:10.382Z,17.88
2017-10-09T11:40:36.162Z,17.26
2017-10-09T11:43:01.899Z,16.94
2017-10-09T11:45:27.640Z,17.04
2017-10-09T11:47:53.407Z,16.97
2017-10-09T11:50:19.202Z,16.76
2017-10-09T11:52:44.948Z,16.78
2017-10-09T11:55:10.762Z,16.80
2017-10-09T11:57:36.490Z,16.95
2017-10-09T12:00:02.255Z,16.93
2017-10-09T12:02:28.031Z,17.08
2017-10-09T12:04:53.822Z,17.37
2017-10-09T12:07:19.599Z,17.55
2017-10-09T12:09:45.343Z,17.59
2017-10-09T12:12:11.083Z,17.71
2017-10-09T12:14:36.846Z,17.95
2017-10-09T12:17:02.586Z,18.02
2017-10-09T12:19:28.384Z,18.00
2017-10-09T12:21:54.177Z,18.12
2017-10-09T12:24:20.018Z,18.20
2017-10-09T12:26:45.822Z,18.29
2017-10-09T12:29:11.584Z,18.61
2017-10-09T12:31:37.327Z,19.15
2017-10-09T12:34:03.119Z,18.86
2017-10-09T12:36:28.866Z,18.66
2017-10-09T12:38:54.602Z,18.84
2017-10-09T12:41:20.351Z,18.88
2017-10-09T12:43:46.117Z,18.82
2017-10-09T12:46:11.890Z,18.79
2017-10-09T12:48:37.642Z,18.61
2017-10-09T12:51:03.395Z,19.00
2017-10-09T12:53:29.179Z,19.18
2017-10-09T12:55:54.965Z,18.97
2017-10-09T12:58:20.706Z,18.85
2017-10-09T13:00:46.495Z,19.63
2017-10-09T13:03:12.251Z,19.65
2017-10-09T13:05:38.002Z,19.46
2017-10-09T13:08:03.840Z,19.62
2017-10-09T13:10:29.577Z,19.68
2017-10-09T13:12:55.317Z,19.28
2017-10-09T13:15:21.082Z,18.92
2017-10-09T13:17:46.839Z,18.68
2017-10-09T13:20:12.605Z,19.05
2017-10-09T13:22:38.355Z,19.11
2017-10-09T13:25:04.160Z,18.85
2017-10-09T13:27:30.473Z,18.73
2017-10-09T13:29:56.227Z,18.62
2017-10-09T13:32:21.998Z,18.32
2017-10-09T13:34:47.771Z,18.30
2017-10-09T13:37:13.539Z,18.32
2017-10-09T13:39:39.297Z,18.40
2017-10-09T13:42:05.094Z,18.48
2017-10-09T13:44:30.868Z,18.82
2017-10-09T13:46:56.619Z,19.49
2017-10-09T13:49:22.947Z,20.01
2017-10-09T13:51:49.590Z,20.37
2017-10-09T13:54:16.222Z,20.78
2017-10-09T13:56:42.403Z,21.11
2017-10-09T13:59:08.723Z,21.43
2017-10-09T14:01:34.889Z,21.62
2017-10-09T14:06:34.120Z,21.70
2017-10-09T14:09:00.210Z,21.46
2017-10-09T14:11:26.293Z,21.63
2017-10-09T14:13:52.879Z,21.63
2017-10-09T14:16:18.730Z,20.68
2017-10-09T14:18:44.555Z,20.06
2017-10-09T14:41:05.858Z,21.90
2017-10-09T14:43:54.535Z,21.73
2017-10-09T15:03:02.415Z,21.58
2017-10-09T15:22:34.740Z,21.75
2017-10-09T15:25:00.646Z,21.31
2017-10-09T15:44:31.744Z,20.11
2017-10-09T15:46:57.528Z,19.90
2017-10-09T16:06:28.315Z,19.06
2017-10-09T16:25:35.278Z,16.43
2017-10-09T16:44:42.453Z,14.93
2017-10-09T17:03:50.118Z,14.48
2017-10-09T17:16:17.736Z,14.33
2017-10-09T17:36:07.028Z,13.89
2017-10-09T17:38:32.803Z,13.91
2017-10-09T17:41:21.939Z,13.96
2017-10-09T18:00:29.983Z,13.67
2017-10-09T18:03:19.023Z,13.67
2017-10-09T18:06:15.802Z,13.69
2017-10-09T18:25:20.416Z,13.16
2017-10-09T18:44:28.331Z,12.82
2017-10-09T18:47:17.084Z,12.78
2017-10-09T18:50:13.784Z,12.79
2017-10-09T19:09:17.632Z,12.71
2017-10-09T19:28:25.152Z,12.66
2017-10-09T19:31:13.890Z,12.61
2017-10-09T19:50:22.228Z,12.39
2017-10-09T19:53:10.859Z,12.40
2017-10-09T20:12:18.708Z,12.26
2017-10-09T20:15:07.330Z,12.26
2017-10-09T20:18:04.221Z,12.25
2017-10-09T20:21:01.109Z,12.24
2017-10-09T20:23:57.687Z,12.18
2017-10-09T20:26:55.186Z,12.15
2017-10-09T20:29:52.325Z,12.17
2017-10-09T20:32:49.823Z,12.16
2017-10-09T20:51:56.924Z,11.95
2017-10-09T20:57:43.663Z,11.83
2017-10-09T21:00:33.099Z,11.85
2017-10-09T21:39:37.310Z,11.57
2017-10-09T21:42:03.137Z,11.54
2017-10-09T21:44:52.298Z,11.55
2017-10-09T21:47:49.022Z,11.46
2017-10-09T21:50:45.529Z,11.42
2017-10-09T21:53:42.027Z,11.48
2017-10-09T21:56:38.834Z,11.41
2017-10-09T21:59:36.212Z,11.34
2017-10-09T22:02:33.765Z,11.34
2017-10-09T22:04:59.564Z,11.41
2017-10-09T22:24:31.110Z,11.28
2017-10-09T22:26:56.927Z,11.05
2017-10-09T22:29:46.333Z,11.08
2017-10-09T22:48:54.351Z,11.14
2017-10-09T22:51:43.099Z,11.13
2017-10-09T22:54:45.937Z,11.11
2017-10-09T22:57:43.276Z,11.12
2017-10-09T23:00:40.782Z,11.07
2017-10-09T23:03:37.936Z,11.06
2017-10-09T23:26:05.141Z,10.92
2017-10-09T23:29:02.537Z,10.98
2017-10-09T23:34:48.594Z,10.89
2017-10-09T23:37:37.253Z,10.85
2017-10-09T23:59:59.094Z,10.85
